Time,TemperatureF,DewpointF,PressureIn,WindDirection,WindDirectionDegrees,WindSpeedMPH,WindSpeedGustMPH,Humidity,HourlyPrecipIn,Conditions,Clouds,dailyrainin,SolarRadiationWatts/m^2,SoftwareType,DateUTC
2013-01-17 00:02:00,30.0,27.0,-100.00,NNE,21,0.0,0.0,87,0.00,,,0.00,0.000000,,2013-01-17 06:02:00,
2013-01-17 00:33:00,29.0,27.0,-100.00,SSE,151,0.0,0.0,92,0.00,,,0.00,0.000000,,2013-01-17 06:33:00,
2013-01-17 00:42:00,29.0,27.0,-100.00,SSE,151,0.0,0.0,92,0.00,,,0.00,0.000000,,2013-01-17 06:42:00,
2013-01-17 00:52:00,29.0,27.0,-100.00,SSE,151,0.0,0.0,92,0.00,,,0.00,0.000000,,2013-01-17 06:52:00,
2013-01-17 01:02:00,29.0,27.0,-100.00,SSE,151,0.0,0.0,92,0.00,,,0.00,0.000000,,2013-01-17 07:02:00,
2013-01-17 01:33:00,28.0,26.0,-100.00,WSW,246,0.0,0.0,92,0.00,,,0.00,0.000000,,2013-01-17 07:33:00,
2013-01-17 01:43:00,28.0,26.0,-100.00,WSW,246,0.0,0.0,92,0.00,,,0.00,0.000000,,2013-01-17 07:43:00,
2013-01-17 01:52:00,28.0,26.0,-100.00,WSW,246,0.0,0.0,92,0.00,,,0.00,0.000000,,2013-01-17 07:52:00,
2013-01-17 02:02:00,28.0,26.0,-100.00,WSW,246,0.0,0.0,92,0.00,,,0.00,0.000000,,2013-01-17 08:02:00,
2013-01-17 02:22:00,27.0,25.0,-100.00,SSE,155,1.0,2.0,93,0.00,,,0.00,0.000000,,2013-01-17 08:22:00,
2013-01-17 02:32:00,27.0,25.0,-100.00,SSE,155,1.0,2.0,93,0.00,,,0.00,0.000000,,2013-01-17 08:32:00,
2013-01-17 02:43:00,27.0,25.0,-100.00,SSE,155,1.0,2.0,93,0.00,,,0.00,0.000000,,2013-01-17 08:43:00,
2013-01-17 02:53:00,27.0,25.0,-100.00,SSE,155,1.0,2.0,93,0.00,,,0.00,0.000000,,2013-01-17 08:53:00,
2013-01-17 03:02:00,27.0,25.0,-100.00,SSE,155,1.0,2.0,93,0.00,,,0.00,0.000000,,2013-01-17 09:02:00,
2013-01-17 03:33:00,26.0,25.0,-100.00,NNE,29,1.0,2.0,94,0.00,,,0.00,0.000000,,2013-01-17 09:33:00,
2013-01-17 03:43:00,26.0,25.0,-100.00,NNE,29,1.0,2.0,94,0.00,,,0.00,0.000000,,2013-01-17 09:43:00,
2013-01-17 03:52:00,26.0,25.0,-100.00,NNE,29,1.0,2.0,94,0.00,,,0.00,0.000000,,2013-01-17 09:52:00,
2013-01-17 04:02:00,26.0,25.0,-100.00,NNE,29,1.0,2.0,94,0.00,,,0.00,0.000000,,2013-01-17 10:02:00,
2013-01-17 04:33:00,25.0,24.0,-100.00,NNE,29,1.0,3.0,94,0.00,,,0.00,0.000000,,2013-01-17 10:33:00,
2013-01-17 04:43:00,25.0,24.0,-100.00,NNE,29,1.0,3.0,94,0.00,,,0.00,0.000000,,2013-01-17 10:43:00,
2013-01-17 04:53:00,25.0,24.0,-100.00,NNE,29,1.0,3.0,94,0.00,,,0.00,0.000000,,2013-01-17 10:53:00,
2013-01-17 05:02:00,25.0,24.0,-100.00,NNE,29,1.0,3.0,94,0.00,,,0.00,0.000000,,2013-01-17 11:02:00,
2013-01-17 05:23:00,26.0,25.0,-100.00,SE,133,0.0,3.0,94,0.00,,,0.00,0.000000,,2013-01-17 11:23:00,
2013-01-17 05:33:00,26.0,25.0,-100.00,SE,133,0.0,3.0,94,0.00,,,0.00,0.000000,,2013-01-17 11:33:00,
2013-01-17 05:43:00,26.0,25.0,-100.00,SE,133,0.0,3.0,94,0.00,,,0.00,0.000000,,2013-01-17 11:43:00,
2013-01-17 05:53:00,26.0,25.0,-100.00,SE,133,0.0,3.0,94,0.00,,,0.00,0.000000,,2013-01-17 11:53:00,
2013-01-17 06:02:00,26.0,25.0,-100.00,SE,133,0.0,3.0,94,0.00,,,0.00,0.000000,,2013-01-17 12:02:00,
2013-01-17 06:03:00,25.0,24.0,-100.00,East,84,0.0,2.0,94,0.00,,,0.00,0.000000,,2013-01-17 12:03:00,
2013-01-17 06:23:00,25.0,24.0,-100.00,East,84,0.0,2.0,94,0.00,,,0.00,0.000000,,2013-01-17 12:23:00,
2013-01-17 06:33:00,25.0,24.0,-100.00,East,84,0.0,2.0,94,0.00,,,0.00,0.000000,,2013-01-17 12:33:00,
2013-01-17 06:43:00,25.0,24.0,-100.00,East,84,0.0,2.0,94,0.00,,,0.00,0.000000,,2013-01-17 12:43:00,
2013-01-17 06:53:00,25.0,24.0,-100.00,East,84,0.0,2.0,94,0.00,,,0.00,0.000000,,2013-01-17 12:53:00,
2013-01-17 07:03:00,25.0,24.0,-100.00,SSE,167,1.0,2.0,94,0.00,,,0.00,0.000000,,2013-01-17 13:03:00,
2013-01-17 07:33:00,25.0,24.0,-100.00,SSE,167,1.0,2.0,94,0.00,,,0.00,0.000000,,2013-01-17 13:33:00,
2013-01-17 07:43:00,25.0,24.0,-100.00,SSE,167,1.0,2.0,94,0.00,,,0.00,0.000000,,2013-01-17 13:43:00,
2013-01-17 07:53:00,25.0,24.0,-100.00,SSE,167,1.0,2.0,94,0.00,,,0.00,0.000000,,2013-01-17 13:53:00,
2013-01-17 08:03:00,28.0,26.0,-100.00,WSW,242,2.0,2.0,91,0.00,,,0.00,34.000000,,2013-01-17 14:03:00,
2013-01-17 08:33:00,28.0,26.0,-100.00,WSW,242,2.0,2.0,91,0.00,,,0.00,34.000000,,2013-01-17 14:33:00,
2013-01-17 08:43:00,28.0,26.0,-100.00,WSW,242,2.0,2.0,91,0.00,,,0.00,34.000000,,2013-01-17 14:43:00,
2013-01-17 08:53:00,28.0,26.0,-100.00,WSW,242,2.0,2.0,91,0.00,,,0.00,34.000000,,2013-01-17 14:53:00,
2013-01-17 09:33:00,38.0,33.0,-100.00,WSW,241,0.0,0.0,83,0.00,,,0.00,226.000000,,2013-01-17 15:33:00,
2013-01-17 09:43:00,38.0,33.0,-100.00,WSW,241,0.0,0.0,83,0.00,,,0.00,226.000000,,2013-01-17 15:43:00,
2013-01-17 09:53:00,38.0,33.0,-100.00,WSW,241,0.0,0.0,83,0.00,,,0.00,226.000000,,2013-01-17 15:53:00,
2013-01-17 10:02:00,38.0,33.0,-100.00,WSW,241,0.0,0.0,83,0.00,,,0.00,226.000000,,2013-01-17 16:02:00,
2013-01-17 10:03:00,44.0,30.0,-100.00,WNW,297,3.0,7.0,57,0.00,,,0.00,418.000000,,2013-01-17 16:03:00,
2013-01-17 10:33:00,44.0,30.0,-100.00,WNW,297,3.0,7.0,57,0.00,,,0.00,418.000000,,2013-01-17 16:33:00,
2013-01-17 10:44:00,44.0,30.0,-100.00,WNW,297,3.0,7.0,57,0.00,,,0.00,418.000000,,2013-01-17 16:44:00,
2013-01-17 10:53:00,44.0,30.0,-100.00,WNW,297,3.0,7.0,57,0.00,,,0.00,418.000000,,2013-01-17 16:53:00,
2013-01-17 11:03:00,50.0,29.0,-100.00,NW,326,4.0,7.0,45,0.00,,,0.00,585.000000,,2013-01-17 17:03:00,
2013-01-17 11:33:00,50.0,29.0,-100.00,NW,326,4.0,7.0,45,0.00,,,0.00,585.000000,,2013-01-17 17:33:00,
2013-01-17 11:43:00,50.0,29.0,-100.00,NW,326,4.0,7.0,45,0.00,,,0.00,585.000000,,2013-01-17 17:43:00,
2013-01-17 11:53:00,50.0,29.0,-100.00,NW,326,4.0,7.0,45,0.00,,,0.00,585.000000,,2013-01-17 17:53:00,
2013-01-17 12:03:00,56.0,31.0,-100.00,NNW,347,7.0,10.0,38,0.00,,,0.00,694.000000,,2013-01-17 18:03:00,
2013-01-17 12:23:00,56.0,31.0,-100.00,NNW,347,7.0,10.0,38,0.00,,,0.00,694.000000,,2013-01-17 18:23:00,
2013-01-17 12:34:00,56.0,31.0,-100.00,NNW,347,7.0,10.0,38,0.00,,,0.00,694.000000,,2013-01-17 18:34:00,
2013-01-17 12:44:00,56.0,31.0,-100.00,NNW,347,7.0,10.0,38,0.00,,,0.00,694.000000,,2013-01-17 18:44:00,
2013-01-17 12:53:00,56.0,31.0,-100.00,NNW,347,7.0,10.0,38,0.00,,,0.00,694.000000,,2013-01-17 18:53:00,
2013-01-17 15:03:00,61.0,33.0,-100.00,North,352,10.0,16.0,35,-99.99,,,0.00,594.000000,,2013-01-17 21:03:00,
2013-01-17 15:34:00,61.0,33.0,-100.00,North,352,10.0,16.0,35,-99.99,,,0.00,594.000000,,2013-01-17 21:34:00,
2013-01-17 15:43:00,61.0,33.0,-100.00,North,352,10.0,16.0,35,-99.99,,,0.00,594.000000,,2013-01-17 21:43:00,
2013-01-17 15:53:00,61.0,33.0,-100.00,North,352,10.0,16.0,35,-99.99,,,0.00,594.000000,,2013-01-17 21:53:00,
2013-01-17 16:03:00,62.0,33.0,-100.00,North,9,8.0,14.0,33,0.00,,,0.00,432.000000,,2013-01-17 22:03:00,
2013-01-17 16:23:00,62.0,33.0,-100.00,North,9,8.0,14.0,33,0.00,,,0.00,432.000000,,2013-01-17 22:23:00,
2013-01-17 16:33:00,62.0,33.0,-100.00,North,9,8.0,14.0,33,0.00,,,0.00,432.000000,,2013-01-17 22:33:00,
2013-01-17 16:43:00,62.0,33.0,-100.00,North,9,8.0,14.0,33,0.00,,,0.00,432.000000,,2013-01-17 22:43:00,
2013-01-17 16:53:00,62.0,33.0,-100.00,North,9,8.0,14.0,33,0.00,,,0.00,432.000000,,2013-01-17 22:53:00,
2013-01-17 17:33:00,60.0,32.0,-100.00,North,355,6.0,12.0,35,0.00,,,0.00,176.000000,,2013-01-17 23:33:00,
2013-01-17 17:43:00,60.0,32.0,-100.00,North,355,6.0,12.0,35,0.00,,,0.00,176.000000,,2013-01-17 23:43:00,
2013-01-17 17:53:00,60.0,32.0,-100.00,North,355,6.0,12.0,35,0.00,,,0.00,176.000000,,2013-01-17 23:53:00,
2013-01-17 18:02:00,60.0,32.0,-100.00,North,355,6.0,12.0,35,0.00,,,0.00,176.000000,,2013-01-18 00:02:00,
2013-01-17 18:03:00,54.0,32.0,-100.00,NW,318,3.0,7.0,43,0.00,,,0.00,10.000000,,2013-01-18 00:03:00,
2013-01-17 18:23:00,54.0,32.0,-100.00,NW,318,3.0,7.0,43,0.00,,,0.00,10.000000,,2013-01-18 00:23:00,
2013-01-17 18:33:00,54.0,32.0,-100.00,NW,318,3.0,7.0,43,0.00,,,0.00,10.000000,,2013-01-18 00:33:00,
2013-01-17 18:43:00,54.0,32.0,-100.00,NW,318,3.0,7.0,43,0.00,,,0.00,10.000000,,2013-01-18 00:43:00,
2013-01-17 18:53:00,54.0,32.0,-100.00,NW,318,3.0,7.0,43,0.00,,,0.00,10.000000,,2013-01-18 00:53:00,
2013-01-17 19:33:00,46.0,36.0,-100.00,North,4,0.0,2.0,67,0.00,,,0.00,0.000000,,2013-01-18 01:33:00,
2013-01-17 19:43:00,46.0,36.0,-100.00,North,4,0.0,2.0,67,0.00,,,0.00,0.000000,,2013-01-18 01:43:00,
2013-01-17 19:53:00,46.0,36.0,-100.00,North,4,0.0,2.0,67,0.00,,,0.00,0.000000,,2013-01-18 01:53:00,
2013-01-17 20:02:00,46.0,36.0,-100.00,North,4,0.0,2.0,67,0.00,,,0.00,0.000000,,2013-01-18 02:02:00,
2013-01-17 20:33:00,42.0,37.0,-100.00,East,84,0.0,0.0,82,0.00,,,0.00,0.000000,,2013-01-18 02:33:00,
2013-01-17 20:43:00,42.0,37.0,-100.00,East,84,0.0,0.0,82,0.00,,,0.00,0.000000,,2013-01-18 02:43:00,
2013-01-17 20:53:00,42.0,37.0,-100.00,East,84,0.0,0.0,82,0.00,,,0.00,0.000000,,2013-01-18 02:53:00,
2013-01-17 21:02:00,42.0,37.0,-100.00,East,84,0.0,0.0,82,0.00,,,0.00,0.000000,,2013-01-18 03:02:00,
2013-01-17 21:33:00,39.0,36.0,-100.00,West,280,0.0,0.0,89,0.00,,,0.00,0.000000,,2013-01-18 03:33:00,
2013-01-17 21:43:00,39.0,36.0,-100.00,West,280,0.0,0.0,89,0.00,,,0.00,0.000000,,2013-01-18 03:43:00,
2013-01-17 21:53:00,39.0,36.0,-100.00,West,280,0.0,0.0,89,0.00,,,0.00,0.000000,,2013-01-18 03:53:00,
2013-01-17 22:02:00,39.0,36.0,-100.00,West,280,0.0,0.0,89,0.00,,,0.00,0.000000,,2013-01-18 04:02:00,
2013-01-17 22:03:00,38.0,35.0,-100.00,ENE,58,1.0,3.0,90,0.00,,,0.00,0.000000,,2013-01-18 04:03:00,
2013-01-17 22:33:00,38.0,35.0,-100.00,ENE,58,1.0,3.0,90,0.00,,,0.00,0.000000,,2013-01-18 04:33:00,
2013-01-17 22:42:00,38.0,35.0,-100.00,ENE,58,1.0,3.0,90,0.00,,,0.00,0.000000,,2013-01-18 04:42:00,
2013-01-17 22:53:00,38.0,35.0,-100.00,ENE,58,1.0,3.0,90,0.00,,,0.00,0.000000,,2013-01-18 04:53:00,
2013-01-17 23:22:00,36.0,34.0,-100.00,NNE,21,1.0,2.0,94,0.00,,,0.00,0.000000,,2013-01-18 05:22:00,
2013-01-17 23:33:00,36.0,34.0,-100.00,NNE,21,1.0,2.0,94,0.00,,,0.00,0.000000,,2013-01-18 05:33:00,
2013-01-17 23:43:00,36.0,34.0,-100.00,NNE,21,1.0,2.0,94,0.00,,,0.00,0.000000,,2013-01-18 05:43:00,
2013-01-17 23:53:00,36.0,34.0,-100.00,NNE,21,1.0,2.0,94,0.00,,,0.00,0.000000,,2013-01-18 05:53:00,